BAW2273 EGKK-KJFK
Flight info
| Callsign | BAW2273 |
|---|---|
| Flight time | N/A |
| Altitude | 36000 |
| Route | IMVUR N63 SAM N19 ADKIK DCT PEWBI DCT MOPAT DCT TOBOR/M083F370 DCT 53N020W 53N030W 5230N04000W 50N050W DCT ELSIR/N0463F380 N402C ALLEX DCT ENE PARCH4 |
| Aircraft | B77W/H-SDE1E2E3FGHIJ2J3J4J5M1RWXY/LB1D1 |
Departure
| Time | N/A |
|---|---|
| Airport | London Gatwick Airport (EGKK) |
Arrival
| Time | 2026-05-07 02:04 |
|---|---|
| Airport | John F. Kennedy International Airport (KJFK) |
| Time | Latitude | Longitude | Altitude | Speed | Heading |
|---|---|---|---|---|---|
| 2026-05-07 01:23 | 42.69829 | -70.96871 | 37805 ft | 428 kts | 210° |
| 2026-05-07 01:24 | 42.64201 | -70.99561 | 37808 ft | 429 kts | 210° |
| 2026-05-07 01:24 | 42.58599 | -71.02229 | 37808 ft | 427 kts | 210° |
| 2026-05-07 01:25 | 42.53007 | -71.04901 | 37816 ft | 425 kts | 210° |
| 2026-05-07 01:25 | 42.47460 | -71.07553 | 37806 ft | 423 kts | 210° |
| 2026-05-07 01:26 | 42.41916 | -71.10198 | 37797 ft | 421 kts | 211° |
| 2026-05-07 01:26 | 42.36433 | -71.12814 | 37814 ft | 420 kts | 211° |
| 2026-05-07 01:27 | 42.30918 | -71.15439 | 37815 ft | 420 kts | 211° |
| 2026-05-07 01:27 | 42.25395 | -71.18063 | 37764 ft | 421 kts | 211° |
| 2026-05-07 01:28 | 42.19878 | -71.20675 | 37832 ft | 421 kts | 211° |
| 2026-05-07 01:28 | 42.14338 | -71.23298 | 37830 ft | 422 kts | 211° |
| 2026-05-07 01:29 | 42.08810 | -71.25910 | 37836 ft | 424 kts | 211° |
| 2026-05-07 01:29 | 42.03238 | -71.28534 | 37829 ft | 424 kts | 211° |
| 2026-05-07 01:30 | 42.00631 | -71.29760 | 37832 ft | 424 kts | 211° |
| 2026-05-07 01:31 | 41.97623 | -71.31175 | 37837 ft | 425 kts | 211° |
| 2026-05-07 01:32 | 41.92044 | -71.33794 | 37845 ft | 425 kts | 211° |
| 2026-05-07 01:32 | 41.86456 | -71.36412 | 37815 ft | 425 kts | 212° |
| 2026-05-07 01:33 | 41.80951 | -71.38979 | 37576 ft | 414 kts | 212° |
| 2026-05-07 01:33 | 41.78240 | -71.40248 | 37120 ft | 410 kts | 212° |
| 2026-05-07 01:33 | 41.75558 | -71.41499 | 36650 ft | 406 kts | 212° |
| 2026-05-07 01:33 | 41.72929 | -71.42795 | 36160 ft | 395 kts | 217° |
| 2026-05-07 01:34 | 41.70694 | -71.44668 | 35614 ft | 364 kts | 233° |
| 2026-05-07 01:34 | 41.68910 | -71.46970 | 35138 ft | 356 kts | 233° |
| 2026-05-07 01:34 | 41.67052 | -71.49140 | 34628 ft | 358 kts | 231° |
| 2026-05-07 01:34 | 41.65133 | -71.51258 | 34113 ft | 358 kts | 230° |
| 2026-05-07 01:35 | 41.63205 | -71.53363 | 33561 ft | 357 kts | 230° |
| 2026-05-07 01:35 | 41.61292 | -71.55457 | 32998 ft | 355 kts | 230° |
| 2026-05-07 01:35 | 41.59386 | -71.57554 | 32489 ft | 353 kts | 230° |
| 2026-05-07 01:35 | 41.57495 | -71.59645 | 31947 ft | 352 kts | 230° |
| 2026-05-07 01:36 | 41.55610 | -71.61737 | 31173 ft | 357 kts | 230° |
| 2026-05-07 01:36 | 41.53662 | -71.63916 | 30460 ft | 372 kts | 229° |
| 2026-05-07 01:36 | 41.51640 | -71.66178 | 29697 ft | 391 kts | 228° |
| 2026-05-07 01:36 | 41.49526 | -71.68528 | 29453 ft | 399 kts | 228° |
| 2026-05-07 01:37 | 41.47389 | -71.70887 | 29147 ft | 398 kts | 228° |
| 2026-05-07 01:37 | 41.45274 | -71.73218 | 28509 ft | 398 kts | 228° |
| 2026-05-07 01:37 | 41.43127 | -71.75585 | 27902 ft | 397 kts | 228° |
| 2026-05-07 01:37 | 41.41009 | -71.77922 | 27386 ft | 395 kts | 228° |
| 2026-05-07 01:38 | 41.38921 | -71.80226 | 26917 ft | 391 kts | 228° |
| 2026-05-07 01:38 | 41.36834 | -71.82529 | 26469 ft | 388 kts | 228° |
| 2026-05-07 01:38 | 41.34762 | -71.84817 | 25992 ft | 385 kts | 228° |
| 2026-05-07 01:38 | 41.32708 | -71.87083 | 25315 ft | 383 kts | 228° |
| 2026-05-07 01:39 | 41.30663 | -71.89337 | 24624 ft | 380 kts | 228° |
| 2026-05-07 01:39 | 41.28631 | -71.91572 | 23987 ft | 378 kts | 228° |
| 2026-05-07 01:39 | 41.26627 | -71.93770 | 23542 ft | 370 kts | 228° |
| 2026-05-07 01:39 | 41.25321 | -71.95200 | 23229 ft | 364 kts | 228° |
| 2026-05-07 01:40 | 41.22735 | -71.98037 | 22666 ft | 358 kts | 228° |
| 2026-05-07 01:40 | 41.20809 | -72.00159 | 22278 ft | 363 kts | 227° |
| 2026-05-07 01:40 | 41.19514 | -72.01584 | 22015 ft | 366 kts | 227° |
| 2026-05-07 01:40 | 41.16880 | -72.04473 | 21500 ft | 368 kts | 227° |
| 2026-05-07 01:41 | 41.14925 | -72.06611 | 21127 ft | 370 kts | 226° |
| 2026-05-07 01:41 | 41.12940 | -72.08780 | 20750 ft | 370 kts | 226° |
| 2026-05-07 01:41 | 41.11020 | -72.11000 | 20340 ft | 358 kts | 232° |
| 2026-05-07 01:41 | 41.09610 | -72.13666 | 19982 ft | 352 kts | 246° |
| 2026-05-07 01:42 | 41.08711 | -72.16676 | 19619 ft | 352 kts | 253° |
| 2026-05-07 01:42 | 41.08212 | -72.18771 | 19384 ft | 353 kts | 253° |
| 2026-05-07 01:42 | 41.07216 | -72.22887 | 18871 ft | 355 kts | 252° |
| 2026-05-07 01:42 | 41.06454 | -72.26008 | 18524 ft | 357 kts | 252° |
| 2026-05-07 01:43 | 41.05934 | -72.28125 | 18252 ft | 358 kts | 252° |
| 2026-05-07 01:43 | 41.05173 | -72.31214 | 17826 ft | 356 kts | 252° |
| 2026-05-07 01:43 | 41.04409 | -72.34300 | 17439 ft | 350 kts | 252° |
| 2026-05-07 01:43 | 41.03406 | -72.38335 | 17031 ft | 341 kts | 252° |
| 2026-05-07 01:44 | 41.02915 | -72.40308 | 16804 ft | 341 kts | 252° |
| 2026-05-07 01:44 | 41.02172 | -72.43288 | 16450 ft | 340 kts | 252° |
| 2026-05-07 01:44 | 41.01432 | -72.46249 | 16095 ft | 340 kts | 252° |
| 2026-05-07 01:44 | 41.00689 | -72.49219 | 15745 ft | 339 kts | 252° |
| 2026-05-07 01:45 | 40.99947 | -72.52179 | 15403 ft | 338 kts | 251° |
| 2026-05-07 01:45 | 40.99206 | -72.55130 | 15038 ft | 337 kts | 251° |
| 2026-05-07 01:45 | 40.98468 | -72.58064 | 14689 ft | 335 kts | 251° |
| 2026-05-07 01:45 | 40.97734 | -72.60985 | 14355 ft | 333 kts | 251° |
| 2026-05-07 01:46 | 40.97005 | -72.63881 | 14000 ft | 331 kts | 251° |
| 2026-05-07 01:46 | 40.96283 | -72.66748 | 13638 ft | 325 kts | 251° |
| 2026-05-07 01:46 | 40.95580 | -72.69535 | 13246 ft | 309 kts | 251° |
| 2026-05-07 01:46 | 40.94923 | -72.72138 | 12917 ft | 288 kts | 251° |
| 2026-05-07 01:47 | 40.94309 | -72.74564 | 12609 ft | 270 kts | 251° |
| 2026-05-07 01:47 | 40.93730 | -72.76850 | 12318 ft | 254 kts | 251° |
| 2026-05-07 01:47 | 40.93121 | -72.78972 | 12128 ft | 241 kts | 242° |
| 2026-05-07 01:47 | 40.92061 | -72.80713 | 12068 ft | 250 kts | 227° |
| 2026-05-07 01:48 | 40.90683 | -72.82188 | 12029 ft | 258 kts | 222° |
| 2026-05-07 01:48 | 40.89220 | -72.83586 | 11994 ft | 261 kts | 221° |
| 2026-05-07 01:48 | 40.87739 | -72.84980 | 11786 ft | 258 kts | 221° |
| 2026-05-07 01:48 | 40.86281 | -72.86351 | 11313 ft | 258 kts | 221° |
| 2026-05-07 01:49 | 40.84817 | -72.87737 | 11005 ft | 258 kts | 221° |
| 2026-05-07 01:49 | 40.83367 | -72.89114 | 10688 ft | 256 kts | 221° |
| 2026-05-07 01:49 | 40.81936 | -72.90475 | 10465 ft | 253 kts | 221° |
| 2026-05-07 01:49 | 40.80512 | -72.91833 | 10249 ft | 251 kts | 221° |
| 2026-05-07 01:50 | 40.79120 | -72.93161 | 10060 ft | 247 kts | 221° |
| 2026-05-07 01:50 | 40.77716 | -72.94505 | 9841 ft | 251 kts | 221° |
| 2026-05-07 01:50 | 40.76324 | -72.95835 | 9649 ft | 249 kts | 222° |
| 2026-05-07 01:50 | 40.74916 | -72.97178 | 9423 ft | 244 kts | 222° |
| 2026-05-07 01:51 | 40.73559 | -72.98473 | 9199 ft | 238 kts | 222° |
| 2026-05-07 01:51 | 40.72282 | -72.99783 | 9008 ft | 225 kts | 231° |
| 2026-05-07 01:51 | 40.71532 | -73.01557 | 8838 ft | 226 kts | 255° |
| 2026-05-07 01:52 | 40.71412 | -73.02209 | 8789 ft | 226 kts | 258° |
| 2026-05-07 01:52 | 40.70478 | -73.07721 | 7946 ft | 232 kts | 257° |
| 2026-05-07 01:52 | 40.70117 | -73.09784 | 7654 ft | 230 kts | 257° |
| 2026-05-07 01:52 | 40.69759 | -73.11830 | 7348 ft | 229 kts | 257° |
| 2026-05-07 01:53 | 40.69401 | -73.13869 | 7037 ft | 228 kts | 257° |
| 2026-05-07 01:53 | 40.69045 | -73.15911 | 6694 ft | 228 kts | 257° |
| 2026-05-07 01:53 | 40.68691 | -73.17951 | 6387 ft | 228 kts | 257° |
| 2026-05-07 01:53 | 40.68336 | -73.19987 | 6067 ft | 228 kts | 257° |
| 2026-05-07 01:54 | 40.67983 | -73.22015 | 5767 ft | 227 kts | 257° |
| 2026-05-07 01:54 | 40.67668 | -73.24043 | 5364 ft | 224 kts | 263° |
| 2026-05-07 01:54 | 40.67940 | -73.26039 | 5094 ft | 227 kts | 292° |
| 2026-05-07 01:54 | 40.68805 | -73.27807 | 5022 ft | 234 kts | 298° |
| 2026-05-07 01:55 | 40.69711 | -73.29640 | 5008 ft | 241 kts | 297° |
| 2026-05-07 01:55 | 40.70608 | -73.31503 | 5007 ft | 240 kts | 297° |
| 2026-05-07 01:55 | 40.71482 | -73.33324 | 4769 ft | 234 kts | 297° |
| 2026-05-07 01:55 | 40.72353 | -73.35150 | 4291 ft | 237 kts | 297° |
| 2026-05-07 01:56 | 40.73226 | -73.36993 | 4038 ft | 237 kts | 297° |
| 2026-05-07 01:56 | 40.74098 | -73.38844 | 4012 ft | 238 kts | 297° |
| 2026-05-07 01:56 | 40.74966 | -73.40689 | 3983 ft | 231 kts | 297° |
| 2026-05-07 01:56 | 40.75781 | -73.42404 | 3979 ft | 212 kts | 297° |
| 2026-05-07 01:57 | 40.76551 | -73.44008 | 3872 ft | 204 kts | 297° |
| 2026-05-07 01:57 | 40.77305 | -73.45577 | 3562 ft | 201 kts | 297° |
| 2026-05-07 01:57 | 40.78048 | -73.47132 | 3192 ft | 200 kts | 297° |
| 2026-05-07 01:57 | 40.78784 | -73.48683 | 2773 ft | 199 kts | 297° |
| 2026-05-07 01:58 | 40.79393 | -73.50294 | 2388 ft | 196 kts | 283° |
| 2026-05-07 01:58 | 40.79672 | -73.52067 | 2097 ft | 196 kts | 277° |
| 2026-05-07 01:58 | 40.79898 | -73.53812 | 2041 ft | 191 kts | 277° |
| 2026-05-07 01:58 | 40.80112 | -73.55543 | 1993 ft | 193 kts | 278° |
| 2026-05-07 01:59 | 40.80166 | -73.57293 | 1969 ft | 192 kts | 256° |
| 2026-05-07 01:59 | 40.79540 | -73.58833 | 1990 ft | 192 kts | 235° |
| 2026-05-07 01:59 | 40.78752 | -73.60202 | 2012 ft | 180 kts | 237° |
| 2026-05-07 01:59 | 40.78049 | -73.61496 | 1994 ft | 168 kts | 238° |
| 2026-05-07 02:00 | 40.77376 | -73.62722 | 1995 ft | 164 kts | 237° |
| 2026-05-07 02:00 | 40.76714 | -73.63924 | 1998 ft | 161 kts | 237° |
| 2026-05-07 02:00 | 40.76063 | -73.65129 | 2002 ft | 161 kts | 237° |
| 2026-05-07 02:00 | 40.75398 | -73.66306 | 2009 ft | 165 kts | 238° |
| 2026-05-07 02:01 | 40.74570 | -73.67390 | 2011 ft | 172 kts | 222° |
| 2026-05-07 02:01 | 40.73591 | -73.68299 | 2005 ft | 173 kts | 220° |
| 2026-05-07 02:01 | 40.72593 | -73.69148 | 1853 ft | 168 kts | 219° |
| 2026-05-07 02:01 | 40.71644 | -73.69897 | 1653 ft | 152 kts | 219° |
| 2026-05-07 02:02 | 40.70773 | -73.70583 | 1437 ft | 144 kts | 218° |
| 2026-05-07 02:02 | 40.69923 | -73.71252 | 1259 ft | 139 kts | 217° |
| 2026-05-07 02:02 | 40.69128 | -73.71875 | 1092 ft | 129 kts | 217° |
| 2026-05-07 02:02 | 40.68599 | -73.72293 | 958 ft | 133 kts | 216° |
| 2026-05-07 02:03 | 40.67543 | -73.73127 | 744 ft | 135 kts | 213° |
| 2026-05-07 02:03 | 40.66745 | -73.73765 | 572 ft | 133 kts | 213° |
| 2026-05-07 02:03 | 40.65964 | -73.74391 | 377 ft | 132 kts | 210° |
| 2026-05-07 02:03 | 40.65163 | -73.74999 | 242 ft | 134 kts | 210° |
| 2026-05-07 02:04 | 40.64352 | -73.75632 | 48 ft | 136 kts | 210° |
| 2026-05-07 02:04 | 40.63602 | -73.76212 | 27 ft | 108 kts | 210° |
| 2026-05-07 02:04 | 40.63119 | -73.76587 | 25 ft | 40 kts | 211° |
| 2026-05-07 02:04 | 40.63004 | -73.76732 | 31 ft | 21 kts | 235° |
| 2026-05-07 02:05 | 40.62943 | -73.76860 | 28 ft | 16 kts | 240° |
| 2026-05-07 02:05 | 40.62933 | -73.76891 | 30 ft | 0 kts | 256° |
| 2026-05-07 02:05 | 40.62933 | -73.76893 | 29 ft | 2 kts | 256° |
| 2026-05-07 02:05 | 40.62937 | -73.76980 | 26 ft | 15 kts | 290° |
| 2026-05-07 02:06 | 40.62989 | -73.77102 | 28 ft | 14 kts | 301° |
| 2026-05-07 02:06 | 40.63038 | -73.77211 | 32 ft | 14 kts | 301° |
| 2026-05-07 02:06 | 40.63054 | -73.77246 | 32 ft | 14 kts | 301° |